createdAt,value
2023-05-17T00:02:08.713Z,10.98
2023-05-17T00:04:36.220Z,11.30
2023-05-17T00:07:03.780Z,11.32
2023-05-17T00:09:31.277Z,13.23
2023-05-17T00:11:58.624Z,11.70
2023-05-17T00:14:26.009Z,15.95
2023-05-17T00:16:53.390Z,14.30
2023-05-17T00:19:21.421Z,11.85
2023-05-17T00:21:48.958Z,11.00
2023-05-17T00:24:16.225Z,11.15
2023-05-17T00:26:43.615Z,10.95
2023-05-17T00:29:10.944Z,9.07
2023-05-17T00:31:38.141Z,11.07
2023-05-17T00:34:05.378Z,10.38
2023-05-17T00:36:32.642Z,10.40
2023-05-17T00:39:01.636Z,11.00
2023-05-17T00:41:28.963Z,11.07
2023-05-17T00:43:56.336Z,13.32
2023-05-17T00:46:23.649Z,11.18
2023-05-17T00:48:51.231Z,12.35
2023-05-17T00:51:21.142Z,10.45
2023-05-17T00:53:48.762Z,11.98
2023-05-17T00:56:16.452Z,10.65
2023-05-17T00:58:43.898Z,10.98
2023-05-17T01:01:11.599Z,10.63
2023-05-17T01:03:39.020Z,10.65
2023-05-17T01:06:07.154Z,10.88
2023-05-17T01:08:35.993Z,9.82
2023-05-17T01:11:32.505Z,10.27
2023-05-17T01:14:28.034Z,10.45
2023-05-17T01:17:02.657Z,12.77
2023-05-17T01:20:21.589Z,10.20
2023-05-17T01:23:21.054Z,10.15
2023-05-17T01:26:30.201Z,10.68
2023-05-17T01:28:59.973Z,9.05
2023-05-17T01:31:27.642Z,10.30
2023-05-17T01:33:59.731Z,10.35
2023-05-17T01:36:28.582Z,12.20
2023-05-17T01:38:55.875Z,11.98
2023-05-17T01:41:30.886Z,9.00
2023-05-17T01:44:38.139Z,9.63
2023-05-17T01:47:42.520Z,10.50
2023-05-17T01:50:13.130Z,11.27
2023-05-17T01:55:54.329Z,13.48
2023-05-17T01:58:26.750Z,10.35
2023-05-17T02:00:58.485Z,7.90
2023-05-17T02:03:29.528Z,9.93
2023-05-17T02:05:56.994Z,8.48
2023-05-17T02:08:24.395Z,9.48
2023-05-17T02:10:52.040Z,11.13
2023-05-17T02:13:19.330Z,8.85
2023-05-17T02:15:47.052Z,10.70
2023-05-17T02:18:14.705Z,12.35
2023-05-17T02:20:42.214Z,10.50
2023-05-17T02:23:09.654Z,10.55
2023-05-17T02:25:36.930Z,8.85
2023-05-17T02:28:04.422Z,8.40
2023-05-17T02:30:31.940Z,9.50
2023-05-17T02:32:59.673Z,13.48
2023-05-17T02:35:27.300Z,9.82
2023-05-17T02:37:54.786Z,10.07
2023-05-17T02:40:22.272Z,10.80
2023-05-17T02:42:49.517Z,9.45
2023-05-17T02:45:16.968Z,9.52
2023-05-17T02:47:44.387Z,9.95
2023-05-17T02:50:11.779Z,7.70
2023-05-17T02:52:39.530Z,6.53
2023-05-17T02:55:08.037Z,7.13
2023-05-17T02:57:35.467Z,7.97
2023-05-17T03:00:03.788Z,6.82
2023-05-17T03:02:31.477Z,7.30
2023-05-17T03:04:59.407Z,7.57
2023-05-17T03:07:27.173Z,6.50
2023-05-17T03:09:55.275Z,6.22
2023-05-17T03:12:23.734Z,5.88
2023-05-17T03:14:51.278Z,7.45
2023-05-17T03:17:20.624Z,7.65
2023-05-17T03:19:48.059Z,7.28
2023-05-17T03:22:15.490Z,9.18
2023-05-17T03:24:42.824Z,7.63
2023-05-17T03:27:10.809Z,4.32
2023-05-17T03:29:38.396Z,4.60
2023-05-17T03:32:06.729Z,3.28
2023-05-17T03:34:34.098Z,4.25
2023-05-17T03:37:01.936Z,4.13
2023-05-17T03:39:29.293Z,3.95
2023-05-17T03:41:56.831Z,3.75
2023-05-17T03:44:25.132Z,4.07
2023-05-17T03:46:53.830Z,4.15
2023-05-17T03:49:22.507Z,3.70
2023-05-17T03:51:50.925Z,6.70
2023-05-17T03:54:19.000Z,5.07
2023-05-17T03:56:49.069Z,5.22
2023-05-17T04:01:45.626Z,4.75
2023-05-17T04:04:14.584Z,4.47
2023-05-17T04:06:42.167Z,3.85
2023-05-17T04:09:11.218Z,5.35
2023-05-17T04:11:41.158Z,3.28
2023-05-17T04:14:08.693Z,5.97
2023-05-17T04:16:36.738Z,4.93
2023-05-17T04:19:04.961Z,5.07
2023-05-17T04:21:32.525Z,4.82
2023-05-17T04:23:59.802Z,4.28
2023-05-17T04:26:27.751Z,5.65
2023-05-17T04:28:55.080Z,5.40
2023-05-17T04:31:23.807Z,7.60
2023-05-17T04:33:51.726Z,6.38
2023-05-17T04:36:19.152Z,7.00
2023-05-17T04:38:46.646Z,8.15
2023-05-17T04:41:18.031Z,8.50
2023-05-17T04:43:45.410Z,10.43
2023-05-17T04:46:20.667Z,8.20
2023-05-17T04:48:48.345Z,19.15
2023-05-17T04:51:15.908Z,8.57
2023-05-17T04:53:43.303Z,10.02
2023-05-17T04:56:15.655Z,11.07
2023-05-17T04:58:43.648Z,10.63
2023-05-17T05:01:12.110Z,9.00
2023-05-17T05:03:40.439Z,7.82
2023-05-17T05:06:09.558Z,7.50
2023-05-17T05:08:37.715Z,8.85
2023-05-17T05:13:35.113Z,8.00
2023-05-17T05:16:02.562Z,8.25
2023-05-17T05:18:29.979Z,6.38
2023-05-17T05:20:57.874Z,6.28
2023-05-17T05:23:25.820Z,6.07
2023-05-17T05:25:53.311Z,6.95
2023-05-17T05:28:20.885Z,8.30
2023-05-17T05:30:49.036Z,7.32
2023-05-17T05:33:16.546Z,8.48
2023-05-17T05:35:44.183Z,10.63
2023-05-17T05:38:11.860Z,7.30
2023-05-17T05:40:40.042Z,7.00
2023-05-17T05:43:07.409Z,6.65
2023-05-17T05:45:34.672Z,6.13
2023-05-17T05:48:05.716Z,5.82
2023-05-17T05:50:35.338Z,6.73
2023-05-17T05:53:18.132Z,4.80
2023-05-17T05:55:51.343Z,5.78
2023-05-17T05:58:19.428Z,5.70
2023-05-17T06:00:47.790Z,5.20
2023-05-17T06:03:15.677Z,6.93
2023-05-17T06:05:43.278Z,5.00
2023-05-17T06:08:10.791Z,5.78
2023-05-17T06:10:37.991Z,6.68
2023-05-17T06:13:05.433Z,4.93
2023-05-17T06:15:32.926Z,4.97
2023-05-17T06:18:00.537Z,6.32
2023-05-17T06:20:28.176Z,5.32
2023-05-17T06:22:55.772Z,5.65
2023-05-17T06:25:23.317Z,5.72
2023-05-17T06:27:50.826Z,6.03
2023-05-17T06:30:18.175Z,5.88
2023-05-17T06:32:45.451Z,6.50
2023-05-17T06:35:12.747Z,4.65
2023-05-17T06:37:39.947Z,5.45
2023-05-17T06:40:16.120Z,5.88
2023-05-17T06:42:44.638Z,6.38
2023-05-17T06:45:13.242Z,6.47
2023-05-17T06:47:41.369Z,5.90
2023-05-17T06:50:09.429Z,5.53
2023-05-17T06:52:37.183Z,4.68
2023-05-17T06:55:08.744Z,3.63
2023-05-17T06:57:37.195Z,3.40
2023-05-17T07:00:11.116Z,4.50
2023-05-17T07:02:38.686Z,3.17
2023-05-17T07:05:07.241Z,4.60
2023-05-17T07:07:35.295Z,2.92
2023-05-17T07:10:02.818Z,3.95
2023-05-17T07:12:30.199Z,4.38
2023-05-17T07:14:57.484Z,4.72
2023-05-17T07:17:24.861Z,4.47
2023-05-17T07:19:52.494Z,4.35
2023-05-17T07:22:20.275Z,5.00
2023-05-17T07:24:48.055Z,5.78
2023-05-17T07:29:45.386Z,4.50
2023-05-17T07:32:12.901Z,4.60
2023-05-17T07:34:40.393Z,4.18
2023-05-17T07:37:07.642Z,4.07
2023-05-17T07:39:35.014Z,3.35
2023-05-17T07:42:04.529Z,4.63
2023-05-17T07:44:32.753Z,4.90
2023-05-17T07:47:00.317Z,4.38
2023-05-17T07:49:27.967Z,5.22
2023-05-17T07:51:55.740Z,6.43
2023-05-17T07:54:25.150Z,6.40
2023-05-17T07:56:55.086Z,7.32
2023-05-17T07:59:23.351Z,14.25
2023-05-17T08:01:51.277Z,6.47
2023-05-17T08:04:21.496Z,7.68
2023-05-17T08:06:50.223Z,7.47
2023-05-17T08:09:17.860Z,9.65
2023-05-17T08:11:48.759Z,6.28
2023-05-17T08:14:17.795Z,6.50
2023-05-17T08:16:46.893Z,9.02
2023-05-17T08:19:15.123Z,6.70
2023-05-17T08:21:44.783Z,6.75
2023-05-17T08:24:12.873Z,7.25
2023-05-17T08:26:40.995Z,6.10
2023-05-17T08:29:08.231Z,9.38
2023-05-17T08:31:35.715Z,9.13
2023-05-17T08:34:03.507Z,6.28
2023-05-17T08:36:31.090Z,6.75
2023-05-17T08:38:58.711Z,7.90
2023-05-17T08:41:26.056Z,7.90
2023-05-17T08:43:54.298Z,7.10
2023-05-17T08:46:23.820Z,7.68
2023-05-17T08:48:52.856Z,7.05
2023-05-17T08:51:20.891Z,13.80
2023-05-17T08:53:50.698Z,9.93
2023-05-17T08:56:20.858Z,10.63
2023-05-17T08:58:57.146Z,10.80
2023-05-17T09:01:27.189Z,10.38
2023-05-17T09:03:56.034Z,6.60
2023-05-17T09:06:24.396Z,7.13
2023-05-17T09:08:54.911Z,5.72
2023-05-17T09:14:05.998Z,6.55
2023-05-17T09:16:36.352Z,8.07
2023-05-17T09:19:06.444Z,6.47
2023-05-17T09:21:34.530Z,5.82
2023-05-17T09:24:07.152Z,9.18
2023-05-17T09:26:43.008Z,7.18
2023-05-17T09:29:12.660Z,5.93
2023-05-17T09:31:41.601Z,5.30
2023-05-17T09:34:09.761Z,5.65
2023-05-17T09:36:38.801Z,4.90
2023-05-17T09:39:12.293Z,7.22
2023-05-17T09:41:51.208Z,4.30
2023-05-17T09:44:18.463Z,5.25
2023-05-17T09:46:48.443Z,6.15
2023-05-17T09:49:17.532Z,9.52
2023-05-17T09:51:48.696Z,5.70
2023-05-17T09:54:17.891Z,5.78
2023-05-17T09:56:53.142Z,9.60
2023-05-17T09:59:21.019Z,6.68
2023-05-17T10:01:50.504Z,6.55
2023-05-17T10:04:23.310Z,6.63
2023-05-17T10:06:53.252Z,10.30
2023-05-17T10:09:23.069Z,8.98
2023-05-17T10:11:56.688Z,10.98
2023-05-17T10:14:36.220Z,9.13
2023-05-17T10:17:04.302Z,8.38
2023-05-17T10:19:32.566Z,7.90
2023-05-17T10:22:11.601Z,9.90
2023-05-17T10:24:52.353Z,9.60
2023-05-17T10:27:20.971Z,11.07
2023-05-17T10:29:50.706Z,10.43
2023-05-17T10:32:23.597Z,18.08
2023-05-17T10:35:02.069Z,10.68
2023-05-17T10:37:34.763Z,11.82
2023-05-17T10:40:02.393Z,16.30
2023-05-17T10:42:32.388Z,14.65
2023-05-17T10:45:01.779Z,18.73
2023-05-17T10:47:33.604Z,13.35
2023-05-17T10:50:04.791Z,14.82
2023-05-17T10:52:32.307Z,13.60
2023-05-17T10:55:00.810Z,21.85
2023-05-17T10:57:50.554Z,13.27
2023-05-17T11:00:31.362Z,11.77
2023-05-17T11:03:22.789Z,14.00
2023-05-17T11:06:24.403Z,13.50
2023-05-17T11:09:32.392Z,18.38
2023-05-17T11:12:09.321Z,14.93
2023-05-17T11:14:45.757Z,13.48
2023-05-17T11:17:21.388Z,12.82
2023-05-17T11:19:55.157Z,14.25
2023-05-17T11:22:27.701Z,13.05
2023-05-17T11:24:57.833Z,11.52
2023-05-17T11:27:28.891Z,15.23
2023-05-17T11:29:57.610Z,13.07
2023-05-17T11:32:32.998Z,15.10
2023-05-17T11:35:01.962Z,12.00
2023-05-17T11:37:31.389Z,16.40
2023-05-17T11:40:08.413Z,15.43
2023-05-17T11:42:37.494Z,12.18
2023-05-17T11:45:06.456Z,16.77
2023-05-17T11:47:38.853Z,13.25
2023-05-17T11:50:07.998Z,20.58
2023-05-17T11:52:35.531Z,16.58
2023-05-17T11:55:04.124Z,13.77
2023-05-17T11:57:32.773Z,16.80
2023-05-17T12:00:05.716Z,15.23
2023-05-17T12:02:42.320Z,16.13
2023-05-17T12:05:09.840Z,14.38
2023-05-17T12:07:37.651Z,16.85
2023-05-17T12:10:06.814Z,13.15
2023-05-17T12:12:34.503Z,15.02
2023-05-17T12:15:02.164Z,14.40
2023-05-17T12:17:38.683Z,17.30
2023-05-17T12:20:10.472Z,10.32
2023-05-17T12:22:57.339Z,12.43
2023-05-17T12:25:27.623Z,17.88
2023-05-17T12:28:22.351Z,16.52
2023-05-17T12:30:58.585Z,11.57
2023-05-17T12:33:26.877Z,17.27
2023-05-17T12:35:54.660Z,16.02
2023-05-17T12:38:22.288Z,12.63
2023-05-17T12:40:50.075Z,12.18
2023-05-17T12:43:18.777Z,11.38
2023-05-17T12:45:48.137Z,13.68
2023-05-17T12:48:15.705Z,12.93
2023-05-17T12:50:46.511Z,10.27
2023-05-17T12:53:13.936Z,24.70
2023-05-17T12:55:41.378Z,12.18
2023-05-17T12:58:08.711Z,13.02
2023-05-17T13:00:36.218Z,12.60
2023-05-17T13:03:11.052Z,12.77
2023-05-17T13:05:39.901Z,10.48
2023-05-17T13:08:21.531Z,12.93
2023-05-17T13:10:48.803Z,12.95
2023-05-17T13:13:20.690Z,12.43
2023-05-17T13:15:48.112Z,11.40
2023-05-17T13:18:16.511Z,15.18
2023-05-17T13:20:44.227Z,14.05
2023-05-17T13:23:11.432Z,17.08
2023-05-17T13:25:38.814Z,15.98
2023-05-17T13:28:06.225Z,14.50
2023-05-17T13:30:33.537Z,14.13
2023-05-17T13:33:01.041Z,15.02
2023-05-17T13:35:28.357Z,16.45
2023-05-17T13:37:58.044Z,16.13
2023-05-17T13:40:25.554Z,15.75
2023-05-17T13:42:52.831Z,16.13
2023-05-17T13:45:20.126Z,19.08
2023-05-17T13:47:47.696Z,21.00
2023-05-17T13:50:17.346Z,17.08
2023-05-17T13:52:44.767Z,21.42
2023-05-17T13:55:12.327Z,20.27
2023-05-17T13:57:39.717Z,20.83
2023-05-17T14:00:08.278Z,18.15
2023-05-17T14:02:36.866Z,20.92
2023-05-17T14:05:07.327Z,22.35
2023-05-17T14:07:34.779Z,17.77
2023-05-17T14:10:02.363Z,20.02
2023-05-17T14:12:29.956Z,19.35
2023-05-17T14:14:57.427Z,21.42
2023-05-17T14:17:24.921Z,18.40
2023-05-17T14:19:52.795Z,22.13
2023-05-17T14:22:20.183Z,21.05
2023-05-17T14:24:47.629Z,19.58
2023-05-17T14:27:15.378Z,18.42
2023-05-17T14:29:42.704Z,18.90
2023-05-17T14:32:13.000Z,20.52
2023-05-17T14:34:40.832Z,23.42
2023-05-17T14:37:08.664Z,21.33
2023-05-17T14:39:36.299Z,21.13
2023-05-17T14:42:04.265Z,21.30
2023-05-17T14:44:31.701Z,18.80
2023-05-17T14:46:59.135Z,18.75
2023-05-17T14:49:26.492Z,19.85
2023-05-17T14:51:53.812Z,20.55
2023-05-17T14:54:22.023Z,22.85
2023-05-17T14:56:49.327Z,22.35
2023-05-17T14:59:16.731Z,21.50
2023-05-17T15:01:43.935Z,20.10
2023-05-17T15:04:11.564Z,19.83
2023-05-17T15:06:38.995Z,21.10
2023-05-17T15:09:06.448Z,22.65
2023-05-17T15:11:33.942Z,19.08
2023-05-17T15:14:02.487Z,22.42
2023-05-17T15:16:30.094Z,22.25
2023-05-17T15:18:58.106Z,23.58
2023-05-17T15:21:26.167Z,25.58
2023-05-17T15:23:53.538Z,27.35
2023-05-17T15:26:21.590Z,23.95
2023-05-17T15:28:52.227Z,28.02
2023-05-17T15:33:47.222Z,23.25
2023-05-17T15:36:16.436Z,26.42
2023-05-17T15:38:45.042Z,23.20
2023-05-17T15:41:16.101Z,23.33
2023-05-17T15:43:44.282Z,24.48
2023-05-17T15:46:12.929Z,21.88
2023-05-17T15:48:40.406Z,87.55
2023-05-17T15:51:07.820Z,40.83
2023-05-17T15:53:35.153Z,23.30
2023-05-17T15:56:02.670Z,27.95
2023-05-17T15:58:33.526Z,30.75
2023-05-17T16:01:05.987Z,24.42
2023-05-17T16:03:34.210Z,24.88
2023-05-17T16:06:01.769Z,24.55
2023-05-17T16:08:29.370Z,31.42
2023-05-17T16:10:56.948Z,26.27
2023-05-17T16:13:24.422Z,22.33
2023-05-17T16:15:51.946Z,23.90
2023-05-17T16:18:19.524Z,25.00
2023-05-17T16:20:46.899Z,25.75
2023-05-17T16:23:14.293Z,28.48
2023-05-17T16:25:42.265Z,24.05
2023-05-17T16:28:09.525Z,25.50
2023-05-17T16:30:37.589Z,28.67
2023-05-17T16:33:08.266Z,23.15
2023-05-17T16:35:36.010Z,23.30
2023-05-17T16:38:03.341Z,26.25
2023-05-17T16:40:31.220Z,22.08
2023-05-17T16:42:58.791Z,20.27
2023-05-17T16:45:26.100Z,21.17
2023-05-17T16:47:53.502Z,23.77
2023-05-17T16:50:20.984Z,25.15
2023-05-17T16:52:48.397Z,24.30
2023-05-17T16:55:15.905Z,23.33
2023-05-17T16:57:43.873Z,23.63
2023-05-17T17:00:12.200Z,25.05
2023-05-17T17:02:39.556Z,23.77
2023-05-17T17:05:07.795Z,26.85
2023-05-17T17:07:35.130Z,25.13
2023-05-17T17:10:02.688Z,21.55
2023-05-17T17:12:30.026Z,24.42
2023-05-17T17:14:57.577Z,29.75
2023-05-17T17:17:24.921Z,31.02
2023-05-17T17:19:52.672Z,26.40
2023-05-17T17:22:20.260Z,29.05
2023-05-17T17:24:47.674Z,28.83
2023-05-17T17:27:15.047Z,26.02
2023-05-17T17:29:42.349Z,24.55
2023-05-17T17:32:09.792Z,25.27
2023-05-17T17:34:37.270Z,28.38
2023-05-17T17:37:04.766Z,30.92
2023-05-17T17:39:32.286Z,34.38
2023-05-17T17:41:59.826Z,25.88
2023-05-17T17:44:27.589Z,27.83
2023-05-17T17:46:55.487Z,28.67
2023-05-17T17:49:23.008Z,31.63
2023-05-17T17:51:50.283Z,28.08
2023-05-17T17:54:17.769Z,29.80
2023-05-17T17:56:45.539Z,31.15
2023-05-17T17:59:13.462Z,26.55
2023-05-17T18:01:41.022Z,31.42
2023-05-17T18:04:09.653Z,29.25
2023-05-17T18:06:37.266Z,32.85
2023-05-17T18:09:05.938Z,31.35
2023-05-17T18:11:33.401Z,30.73
2023-05-17T18:14:02.482Z,28.48
2023-05-17T18:16:30.794Z,28.35
2023-05-17T18:18:58.187Z,33.60
2023-05-17T18:21:25.624Z,39.92
2023-05-17T18:23:53.111Z,31.08
2023-05-17T18:26:21.364Z,31.42
2023-05-17T18:28:48.839Z,31.83
2023-05-17T18:31:16.377Z,34.92
2023-05-17T18:33:43.602Z,27.70
2023-05-17T18:36:10.942Z,29.73
2023-05-17T18:38:38.424Z,29.25
2023-05-17T18:41:05.872Z,29.58
2023-05-17T18:43:33.655Z,36.67
2023-05-17T18:46:01.161Z,30.27
2023-05-17T18:48:28.625Z,31.50
2023-05-17T18:50:57.627Z,36.03
2023-05-17T18:53:25.232Z,32.15
2023-05-17T18:55:52.627Z,28.80
2023-05-17T18:58:20.277Z,38.97
2023-05-17T19:00:48.719Z,27.95
2023-05-17T19:03:16.167Z,30.40
2023-05-17T19:05:43.617Z,33.25
2023-05-17T19:08:11.004Z,27.27
2023-05-17T19:10:38.453Z,30.23
2023-05-17T19:13:08.702Z,33.50
2023-05-17T19:15:36.353Z,41.28
2023-05-17T19:18:04.283Z,30.55
2023-05-17T19:20:32.011Z,36.10
2023-05-17T19:23:01.062Z,30.52
2023-05-17T19:25:28.795Z,32.90
2023-05-17T19:27:56.420Z,29.67
2023-05-17T19:30:23.904Z,41.28
2023-05-17T19:32:51.411Z,41.83
2023-05-17T19:35:19.368Z,28.08
2023-05-17T19:37:47.805Z,32.65
2023-05-17T19:40:18.738Z,33.08
2023-05-17T19:42:46.926Z,30.42
2023-05-17T19:45:14.759Z,33.80
2023-05-17T19:47:42.801Z,30.38
2023-05-17T19:50:11.763Z,31.90
2023-05-17T19:52:39.486Z,28.25
2023-05-17T19:55:07.102Z,24.50
2023-05-17T19:57:34.671Z,43.25
2023-05-17T20:00:02.250Z,30.15
2023-05-17T20:02:31.804Z,32.85
2023-05-17T20:05:02.241Z,28.60
2023-05-17T20:07:33.492Z,35.65
2023-05-17T20:10:00.850Z,30.02
2023-05-17T20:12:28.335Z,31.55
2023-05-17T20:14:55.725Z,30.70
2023-05-17T20:17:23.148Z,30.80
2023-05-17T20:19:51.462Z,31.80
2023-05-17T20:22:20.935Z,42.20
2023-05-17T20:24:48.345Z,26.77
2023-05-17T20:27:15.835Z,31.40
2023-05-17T20:29:43.425Z,30.70
2023-05-17T20:32:10.846Z,26.77
2023-05-17T20:34:38.323Z,27.35
2023-05-17T20:37:06.113Z,26.10
2023-05-17T20:39:33.344Z,30.65
2023-05-17T20:42:01.480Z,25.85
2023-05-17T20:44:28.773Z,28.48
2023-05-17T20:46:57.011Z,28.70
2023-05-17T20:49:24.191Z,23.52
2023-05-17T20:51:51.505Z,29.17
2023-05-17T20:54:18.900Z,33.10
2023-05-17T20:56:46.406Z,27.33
2023-05-17T20:59:13.748Z,33.17
2023-05-17T21:01:41.584Z,38.25
2023-05-17T21:04:09.243Z,34.00
2023-05-17T21:06:36.690Z,32.15
2023-05-17T21:09:04.069Z,31.27
2023-05-17T21:11:31.410Z,30.77
2023-05-17T21:13:59.819Z,29.35
2023-05-17T21:16:27.425Z,29.27
2023-05-17T21:18:55.145Z,31.33
2023-05-17T21:21:22.721Z,35.28
2023-05-17T21:23:50.064Z,29.85
2023-05-17T21:26:17.424Z,36.97
2023-05-17T21:28:44.682Z,31.48
2023-05-17T21:31:12.113Z,27.88
2023-05-17T21:33:39.556Z,26.90
2023-05-17T21:36:07.116Z,33.60
2023-05-17T21:38:34.481Z,31.00
2023-05-17T21:41:01.901Z,29.70
2023-05-17T21:43:29.117Z,30.38
2023-05-17T21:45:56.740Z,32.63
2023-05-17T21:48:24.624Z,31.38
2023-05-17T21:50:52.072Z,30.50
2023-05-17T21:53:19.304Z,29.42
2023-05-17T21:58:20.675Z,28.17
2023-05-17T22:00:48.064Z,32.20
2023-05-17T22:03:15.852Z,31.92
2023-05-17T22:05:43.141Z,35.33
2023-05-17T22:08:10.484Z,47.05
2023-05-17T22:10:40.326Z,29.30
2023-05-17T22:13:12.314Z,29.67
2023-05-17T22:15:41.687Z,27.27
2023-05-17T22:18:12.512Z,30.58
2023-05-17T22:20:40.075Z,32.78
2023-05-17T22:23:07.580Z,29.88
2023-05-17T22:25:35.544Z,31.50
2023-05-17T22:28:03.115Z,35.15
2023-05-17T22:30:30.584Z,26.65
2023-05-17T22:32:58.217Z,30.55
2023-05-17T22:35:25.735Z,30.27
2023-05-17T22:37:53.594Z,28.23
2023-05-17T22:40:21.387Z,26.92
2023-05-17T22:42:50.240Z,29.67
2023-05-17T22:45:18.344Z,35.67
2023-05-17T22:47:47.166Z,25.67
2023-05-17T22:50:15.907Z,29.73
2023-05-17T22:52:43.578Z,25.65
2023-05-17T22:55:11.406Z,30.05
2023-05-17T22:57:39.206Z,27.95
2023-05-17T23:00:09.317Z,30.85
2023-05-17T23:02:36.738Z,32.03
2023-05-17T23:05:04.939Z,31.85
2023-05-17T23:07:38.780Z,35.85
2023-05-17T23:10:11.706Z,29.55
2023-05-17T23:12:39.293Z,35.47
2023-05-17T23:15:08.043Z,26.98
2023-05-17T23:17:35.601Z,34.47
2023-05-17T23:20:07.586Z,36.92
2023-05-17T23:22:35.029Z,29.30
2023-05-17T23:25:06.165Z,32.13
2023-05-17T23:27:35.470Z,26.90
2023-05-17T23:30:04.564Z,27.92
2023-05-17T23:32:32.851Z,31.40
2023-05-17T23:35:04.316Z,35.97
2023-05-17T23:37:33.652Z,35.70
2023-05-17T23:40:01.194Z,29.30
2023-05-17T23:42:31.980Z,27.58
2023-05-17T23:45:00.780Z,25.08
2023-05-17T23:47:28.416Z,27.75
2023-05-17T23:49:56.692Z,28.63
2023-05-17T23:52:24.572Z,23.40
2023-05-17T23:54:51.984Z,23.73
2023-05-17T23:57:19.444Z,22.52
2023-05-17T23:59:46.759Z,34.95
